sensor_id;sensor_type;location;lat;lon;timestamp;P1;durP1;ratioP1;P2;durP2;ratioP2
59585;SDS011;45408;52.686;7.310;2023-02-19T00:03:59;36.42;;;20.20;;
59585;SDS011;45408;52.686;7.310;2023-02-19T00:06:26;31.85;;;15.10;;
59585;SDS011;45408;52.686;7.310;2023-02-19T00:08:52;23.77;;;13.30;;
59585;SDS011;45408;52.686;7.310;2023-02-19T00:11:18;29.40;;;14.65;;
59585;SDS011;45408;52.686;7.310;2023-02-19T00:13:44;25.95;;;14.68;;
59585;SDS011;45408;52.686;7.310;2023-02-19T00:18:38;23.93;;;12.67;;
59585;SDS011;45408;52.686;7.310;2023-02-19T00:21:03;27.67;;;16.17;;
59585;SDS011;45408;52.686;7.310;2023-02-19T00:23:29;26.20;;;15.70;;
59585;SDS011;45408;52.686;7.310;2023-02-19T00:25:54;25.40;;;14.50;;
59585;SDS011;45408;52.686;7.310;2023-02-19T00:28:20;29.48;;;15.85;;
59585;SDS011;45408;52.686;7.310;2023-02-19T00:30:45;33.67;;;18.20;;
59585;SDS011;45408;52.686;7.310;2023-02-19T00:33:10;33.60;;;16.42;;
59585;SDS011;45408;52.686;7.310;2023-02-19T00:35:35;28.27;;;14.17;;
59585;SDS011;45408;52.686;7.310;2023-02-19T00:38:01;30.80;;;15.93;;
59585;SDS011;45408;52.686;7.310;2023-02-19T00:40:26;30.77;;;15.25;;
59585;SDS011;45408;52.686;7.310;2023-02-19T00:42:52;29.83;;;15.20;;
59585;SDS011;45408;52.686;7.310;2023-02-19T00:45:17;32.10;;;16.80;;
59585;SDS011;45408;52.686;7.310;2023-02-19T00:47:42;26.25;;;13.95;;
59585;SDS011;45408;52.686;7.310;2023-02-19T00:50:07;27.43;;;15.23;;
59585;SDS011;45408;52.686;7.310;2023-02-19T00:52:32;25.67;;;14.30;;
59585;SDS011;45408;52.686;7.310;2023-02-19T00:54:58;30.10;;;16.10;;
59585;SDS011;45408;52.686;7.310;2023-02-19T00:57:23;32.13;;;14.35;;
59585;SDS011;45408;52.686;7.310;2023-02-19T00:59:48;28.85;;;16.17;;
59585;SDS011;45408;52.686;7.310;2023-02-19T01:02:13;23.57;;;11.93;;
59585;SDS011;45408;52.686;7.310;2023-02-19T01:04:39;25.60;;;14.23;;
59585;SDS011;45408;52.686;7.310;2023-02-19T01:07:04;25.03;;;14.40;;
59585;SDS011;45408;52.686;7.310;2023-02-19T01:09:29;24.63;;;12.32;;
59585;SDS011;45408;52.686;7.310;2023-02-19T01:11:54;24.33;;;13.20;;
59585;SDS011;45408;52.686;7.310;2023-02-19T01:14:19;21.13;;;11.63;;
59585;SDS011;45408;52.686;7.310;2023-02-19T01:16:44;22.23;;;10.87;;
59585;SDS011;45408;52.686;7.310;2023-02-19T01:19:10;23.23;;;10.40;;
59585;SDS011;45408;52.686;7.310;2023-02-19T01:21:35;27.80;;;14.07;;
59585;SDS011;45408;52.686;7.310;2023-02-19T01:24:00;24.25;;;12.52;;
59585;SDS011;45408;52.686;7.310;2023-02-19T01:26:27;33.77;;;15.70;;
59585;SDS011;45408;52.686;7.310;2023-02-19T01:28:52;31.40;;;17.67;;
59585;SDS011;45408;52.686;7.310;2023-02-19T01:31:18;24.70;;;12.17;;
59585;SDS011;45408;52.686;7.310;2023-02-19T01:33:48;30.00;;;16.35;;
59585;SDS011;45408;52.686;7.310;2023-02-19T01:36:14;26.52;;;14.88;;
59585;SDS011;45408;52.686;7.310;2023-02-19T01:38:39;29.02;;;14.65;;
59585;SDS011;45408;52.686;7.310;2023-02-19T01:41:05;34.13;;;14.57;;
59585;SDS011;45408;52.686;7.310;2023-02-19T01:43:31;34.60;;;16.13;;
59585;SDS011;45408;52.686;7.310;2023-02-19T01:45:56;26.35;;;14.05;;
59585;SDS011;45408;52.686;7.310;2023-02-19T01:48:26;30.75;;;14.68;;
59585;SDS011;45408;52.686;7.310;2023-02-19T01:50:55;29.88;;;14.02;;
59585;SDS011;45408;52.686;7.310;2023-02-19T01:53:22;29.73;;;15.32;;
59585;SDS011;45408;52.686;7.310;2023-02-19T01:55:50;42.92;;;19.52;;
59585;SDS011;45408;52.686;7.310;2023-02-19T01:58:17;32.15;;;17.50;;
59585;SDS011;45408;52.686;7.310;2023-02-19T02:00:42;36.97;;;14.57;;
59585;SDS011;45408;52.686;7.310;2023-02-19T02:03:07;40.80;;;18.67;;
59585;SDS011;45408;52.686;7.310;2023-02-19T02:08:03;36.42;;;16.10;;
59585;SDS011;45408;52.686;7.310;2023-02-19T02:10:47;39.80;;;18.15;;
59585;SDS011;45408;52.686;7.310;2023-02-19T02:13:12;34.20;;;15.68;;
59585;SDS011;45408;52.686;7.310;2023-02-19T02:15:40;33.93;;;15.00;;
59585;SDS011;45408;52.686;7.310;2023-02-19T02:18:22;35.33;;;15.82;;
59585;SDS011;45408;52.686;7.310;2023-02-19T02:23:29;29.27;;;14.15;;
59585;SDS011;45408;52.686;7.310;2023-02-19T02:26:07;36.20;;;15.45;;
59585;SDS011;45408;52.686;7.310;2023-02-19T02:31:08;27.27;;;12.13;;
59585;SDS011;45408;52.686;7.310;2023-02-19T02:36:20;29.10;;;12.32;;
59585;SDS011;45408;52.686;7.310;2023-02-19T02:38:46;30.88;;;12.73;;
59585;SDS011;45408;52.686;7.310;2023-02-19T02:41:12;36.45;;;14.35;;
59585;SDS011;45408;52.686;7.310;2023-02-19T02:43:38;29.92;;;13.88;;
59585;SDS011;45408;52.686;7.310;2023-02-19T02:46:03;23.48;;;10.75;;
59585;SDS011;45408;52.686;7.310;2023-02-19T02:48:35;30.07;;;11.67;;
59585;SDS011;45408;52.686;7.310;2023-02-19T02:56:12;34.50;;;12.43;;
59585;SDS011;45408;52.686;7.310;2023-02-19T02:58:38;26.58;;;11.10;;
59585;SDS011;45408;52.686;7.310;2023-02-19T03:01:06;29.25;;;11.20;;
59585;SDS011;45408;52.686;7.310;2023-02-19T03:03:52;28.38;;;10.13;;
59585;SDS011;45408;52.686;7.310;2023-02-19T03:06:19;22.70;;;10.47;;
59585;SDS011;45408;52.686;7.310;2023-02-19T03:08:57;24.13;;;10.65;;
59585;SDS011;45408;52.686;7.310;2023-02-19T03:11:24;26.10;;;10.57;;
59585;SDS011;45408;52.686;7.310;2023-02-19T03:14:18;28.08;;;9.20;;
59585;SDS011;45408;52.686;7.310;2023-02-19T03:17:12;24.48;;;11.70;;
59585;SDS011;45408;52.686;7.310;2023-02-19T03:19:58;19.83;;;7.88;;
59585;SDS011;45408;52.686;7.310;2023-02-19T03:22:26;13.68;;;7.00;;
59585;SDS011;45408;52.686;7.310;2023-02-19T03:24:55;13.45;;;7.97;;
59585;SDS011;45408;52.686;7.310;2023-02-19T03:27:41;19.50;;;8.95;;
59585;SDS011;45408;52.686;7.310;2023-02-19T03:30:09;15.15;;;6.82;;
59585;SDS011;45408;52.686;7.310;2023-02-19T03:32:43;17.33;;;7.32;;
59585;SDS011;45408;52.686;7.310;2023-02-19T03:35:14;14.30;;;7.65;;
59585;SDS011;45408;52.686;7.310;2023-02-19T03:37:40;18.10;;;8.80;;
59585;SDS011;45408;52.686;7.310;2023-02-19T03:40:08;18.38;;;7.43;;
59585;SDS011;45408;52.686;7.310;2023-02-19T03:42:47;19.63;;;7.38;;
59585;SDS011;45408;52.686;7.310;2023-02-19T03:47:51;11.80;;;7.05;;
59585;SDS011;45408;52.686;7.310;2023-02-19T03:53:47;15.27;;;6.93;;
59585;SDS011;45408;52.686;7.310;2023-02-19T03:56:03;13.88;;;6.10;;
59585;SDS011;45408;52.686;7.310;2023-02-19T03:58:31;19.42;;;8.52;;
59585;SDS011;45408;52.686;7.310;2023-02-19T04:01:01;11.02;;;6.05;;
59585;SDS011;45408;52.686;7.310;2023-02-19T04:03:33;19.33;;;7.30;;
59585;SDS011;45408;52.686;7.310;2023-02-19T04:06:02;9.82;;;6.15;;
59585;SDS011;45408;52.686;7.310;2023-02-19T04:08:28;12.38;;;5.95;;
59585;SDS011;45408;52.686;7.310;2023-02-19T04:10:54;11.27;;;5.72;;
59585;SDS011;45408;52.686;7.310;2023-02-19T04:13:23;10.20;;;5.70;;
59585;SDS011;45408;52.686;7.310;2023-02-19T04:15:50;12.40;;;6.47;;
59585;SDS011;45408;52.686;7.310;2023-02-19T04:18:17;10.63;;;4.53;;
59585;SDS011;45408;52.686;7.310;2023-02-19T04:20:44;5.38;;;3.20;;
59585;SDS011;45408;52.686;7.310;2023-02-19T04:23:09;4.70;;;3.25;;
59585;SDS011;45408;52.686;7.310;2023-02-19T04:25:35;5.22;;;3.25;;
59585;SDS011;45408;52.686;7.310;2023-02-19T04:28:02;2.75;;;2.10;;
59585;SDS011;45408;52.686;7.310;2023-02-19T04:30:27;2.00;;;1.60;;
59585;SDS011;45408;52.686;7.310;2023-02-19T04:32:52;1.50;;;1.40;;
59585;SDS011;45408;52.686;7.310;2023-02-19T04:35:17;1.50;;;1.30;;
59585;SDS011;45408;52.686;7.310;2023-02-19T04:37:42;1.83;;;1.60;;
59585;SDS011;45408;52.686;7.310;2023-02-19T04:40:08;1.70;;;1.40;;
59585;SDS011;45408;52.686;7.310;2023-02-19T04:42:33;1.98;;;1.45;;
59585;SDS011;45408;52.686;7.310;2023-02-19T04:44:58;2.63;;;1.30;;
59585;SDS011;45408;52.686;7.310;2023-02-19T04:47:24;1.60;;;1.33;;
59585;SDS011;45408;52.686;7.310;2023-02-19T04:49:49;1.63;;;1.40;;
59585;SDS011;45408;52.686;7.310;2023-02-19T04:52:14;1.97;;;1.40;;
59585;SDS011;45408;52.686;7.310;2023-02-19T04:54:39;1.92;;;1.35;;
59585;SDS011;45408;52.686;7.310;2023-02-19T04:57:04;2.53;;;1.37;;
59585;SDS011;45408;52.686;7.310;2023-02-19T04:59:30;1.07;;;0.97;;
59585;SDS011;45408;52.686;7.310;2023-02-19T05:01:55;1.60;;;1.20;;
59585;SDS011;45408;52.686;7.310;2023-02-19T05:04:21;1.30;;;0.95;;
59585;SDS011;45408;52.686;7.310;2023-02-19T05:06:47;1.52;;;1.23;;
59585;SDS011;45408;52.686;7.310;2023-02-19T05:09:13;1.90;;;1.17;;
59585;SDS011;45408;52.686;7.310;2023-02-19T05:11:38;1.33;;;0.98;;
59585;SDS011;45408;52.686;7.310;2023-02-19T05:14:03;1.20;;;1.07;;
59585;SDS011;45408;52.686;7.310;2023-02-19T05:16:28;1.10;;;0.90;;
59585;SDS011;45408;52.686;7.310;2023-02-19T05:18:53;1.77;;;1.30;;
59585;SDS011;45408;52.686;7.310;2023-02-19T05:21:19;1.87;;;1.37;;
59585;SDS011;45408;52.686;7.310;2023-02-19T05:23:44;2.50;;;1.75;;
59585;SDS011;45408;52.686;7.310;2023-02-19T05:26:16;2.60;;;1.67;;
59585;SDS011;45408;52.686;7.310;2023-02-19T05:28:43;2.15;;;1.50;;
59585;SDS011;45408;52.686;7.310;2023-02-19T05:31:09;2.38;;;1.70;;
59585;SDS011;45408;52.686;7.310;2023-02-19T05:33:35;2.40;;;1.80;;
59585;SDS011;45408;52.686;7.310;2023-02-19T05:36:03;2.65;;;1.98;;
59585;SDS011;45408;52.686;7.310;2023-02-19T05:38:29;3.47;;;2.20;;
59585;SDS011;45408;52.686;7.310;2023-02-19T05:40:54;2.43;;;1.67;;
59585;SDS011;45408;52.686;7.310;2023-02-19T05:43:19;2.47;;;1.70;;
59585;SDS011;45408;52.686;7.310;2023-02-19T05:45:44;3.10;;;2.00;;
59585;SDS011;45408;52.686;7.310;2023-02-19T05:48:10;2.50;;;1.83;;
59585;SDS011;45408;52.686;7.310;2023-02-19T05:50:36;2.50;;;1.73;;
59585;SDS011;45408;52.686;7.310;2023-02-19T05:53:02;3.63;;;2.33;;
59585;SDS011;45408;52.686;7.310;2023-02-19T05:55:28;3.50;;;2.08;;
59585;SDS011;45408;52.686;7.310;2023-02-19T05:57:53;3.80;;;2.22;;
59585;SDS011;45408;52.686;7.310;2023-02-19T06:00:18;2.27;;;1.80;;
59585;SDS011;45408;52.686;7.310;2023-02-19T06:02:44;4.32;;;2.38;;
59585;SDS011;45408;52.686;7.310;2023-02-19T06:05:10;3.60;;;2.05;;
59585;SDS011;45408;52.686;7.310;2023-02-19T06:07:35;3.60;;;2.38;;
59585;SDS011;45408;52.686;7.310;2023-02-19T06:10:03;3.83;;;1.80;;
59585;SDS011;45408;52.686;7.310;2023-02-19T06:12:28;2.92;;;1.50;;
59585;SDS011;45408;52.686;7.310;2023-02-19T06:14:53;3.67;;;1.77;;
59585;SDS011;45408;52.686;7.310;2023-02-19T06:17:19;2.73;;;1.83;;
59585;SDS011;45408;52.686;7.310;2023-02-19T06:19:44;5.03;;;2.10;;
59585;SDS011;45408;52.686;7.310;2023-02-19T06:22:09;3.53;;;1.80;;
59585;SDS011;45408;52.686;7.310;2023-02-19T06:24:34;4.38;;;2.17;;
59585;SDS011;45408;52.686;7.310;2023-02-19T06:27:03;2.92;;;1.65;;
59585;SDS011;45408;52.686;7.310;2023-02-19T06:29:29;3.95;;;2.03;;
59585;SDS011;45408;52.686;7.310;2023-02-19T06:31:56;4.38;;;2.13;;
59585;SDS011;45408;52.686;7.310;2023-02-19T06:34:21;4.20;;;1.93;;
59585;SDS011;45408;52.686;7.310;2023-02-19T06:36:47;3.83;;;2.10;;
59585;SDS011;45408;52.686;7.310;2023-02-19T06:39:12;2.78;;;1.77;;
59585;SDS011;45408;52.686;7.310;2023-02-19T06:41:38;4.65;;;2.13;;
59585;SDS011;45408;52.686;7.310;2023-02-19T06:44:03;5.83;;;2.20;;
59585;SDS011;45408;52.686;7.310;2023-02-19T06:46:28;3.63;;;2.20;;
59585;SDS011;45408;52.686;7.310;2023-02-19T06:48:53;2.75;;;1.75;;
59585;SDS011;45408;52.686;7.310;2023-02-19T06:51:19;2.70;;;1.70;;
59585;SDS011;45408;52.686;7.310;2023-02-19T06:53:47;2.83;;;1.65;;
59585;SDS011;45408;52.686;7.310;2023-02-19T06:56:32;2.92;;;1.90;;
59585;SDS011;45408;52.686;7.310;2023-02-19T06:58:59;3.35;;;1.92;;
59585;SDS011;45408;52.686;7.310;2023-02-19T07:01:24;4.00;;;2.05;;
59585;SDS011;45408;52.686;7.310;2023-02-19T07:03:49;3.63;;;2.05;;
59585;SDS011;45408;52.686;7.310;2023-02-19T07:06:16;4.22;;;1.90;;
59585;SDS011;45408;52.686;7.310;2023-02-19T07:08:41;3.47;;;2.00;;
59585;SDS011;45408;52.686;7.310;2023-02-19T07:11:06;3.70;;;1.80;;
59585;SDS011;45408;52.686;7.310;2023-02-19T07:13:32;3.80;;;2.13;;
59585;SDS011;45408;52.686;7.310;2023-02-19T07:15:58;3.28;;;1.80;;
59585;SDS011;45408;52.686;7.310;2023-02-19T07:18:23;4.55;;;2.40;;
59585;SDS011;45408;52.686;7.310;2023-02-19T07:20:48;5.00;;;2.73;;
59585;SDS011;45408;52.686;7.310;2023-02-19T07:23:13;3.87;;;2.33;;
59585;SDS011;45408;52.686;7.310;2023-02-19T07:25:39;5.00;;;2.80;;
59585;SDS011;45408;52.686;7.310;2023-02-19T07:28:04;4.43;;;3.10;;
59585;SDS011;45408;52.686;7.310;2023-02-19T07:30:29;5.03;;;3.25;;
59585;SDS011;45408;52.686;7.310;2023-02-19T07:32:54;6.40;;;3.67;;
59585;SDS011;45408;52.686;7.310;2023-02-19T07:35:20;5.03;;;3.13;;
59585;SDS011;45408;52.686;7.310;2023-02-19T07:37:45;7.05;;;3.53;;
59585;SDS011;45408;52.686;7.310;2023-02-19T07:40:10;6.27;;;3.77;;
59585;SDS011;45408;52.686;7.310;2023-02-19T07:42:35;5.83;;;3.40;;
59585;SDS011;45408;52.686;7.310;2023-02-19T07:45:00;5.67;;;2.83;;
59585;SDS011;45408;52.686;7.310;2023-02-19T07:47:25;7.97;;;2.80;;
59585;SDS011;45408;52.686;7.310;2023-02-19T07:49:51;4.80;;;2.83;;
59585;SDS011;45408;52.686;7.310;2023-02-19T07:52:16;6.10;;;3.30;;
59585;SDS011;45408;52.686;7.310;2023-02-19T07:54:41;6.53;;;3.03;;
59585;SDS011;45408;52.686;7.310;2023-02-19T07:57:06;5.90;;;2.73;;
59585;SDS011;45408;52.686;7.310;2023-02-19T07:59:31;4.13;;;2.70;;
59585;SDS011;45408;52.686;7.310;2023-02-19T08:01:58;5.70;;;2.70;;
59585;SDS011;45408;52.686;7.310;2023-02-19T08:04:52;4.40;;;2.72;;
59585;SDS011;45408;52.686;7.310;2023-02-19T08:07:17;6.17;;;3.10;;
59585;SDS011;45408;52.686;7.310;2023-02-19T08:09:42;5.53;;;2.97;;
59585;SDS011;45408;52.686;7.310;2023-02-19T08:12:08;5.03;;;2.97;;
59585;SDS011;45408;52.686;7.310;2023-02-19T08:14:53;5.50;;;2.83;;
59585;SDS011;45408;52.686;7.310;2023-02-19T08:17:18;5.50;;;2.80;;
59585;SDS011;45408;52.686;7.310;2023-02-19T08:19:43;4.20;;;2.73;;
59585;SDS011;45408;52.686;7.310;2023-02-19T08:22:09;6.22;;;3.30;;
59585;SDS011;45408;52.686;7.310;2023-02-19T08:24:34;5.27;;;3.07;;
59585;SDS011;45408;52.686;7.310;2023-02-19T08:27:00;7.30;;;2.83;;
59585;SDS011;45408;52.686;7.310;2023-02-19T08:29:25;6.13;;;2.40;;
59585;SDS011;45408;52.686;7.310;2023-02-19T08:31:50;5.23;;;3.23;;
59585;SDS011;45408;52.686;7.310;2023-02-19T08:34:15;4.77;;;2.67;;
59585;SDS011;45408;52.686;7.310;2023-02-19T08:36:40;4.53;;;2.60;;
59585;SDS011;45408;52.686;7.310;2023-02-19T08:39:06;4.57;;;2.70;;
59585;SDS011;45408;52.686;7.310;2023-02-19T08:41:31;4.87;;;2.80;;
59585;SDS011;45408;52.686;7.310;2023-02-19T08:43:56;4.77;;;2.40;;
59585;SDS011;45408;52.686;7.310;2023-02-19T08:46:22;3.83;;;2.37;;
59585;SDS011;45408;52.686;7.310;2023-02-19T08:48:47;4.50;;;2.75;;
59585;SDS011;45408;52.686;7.310;2023-02-19T08:51:12;4.90;;;2.60;;
59585;SDS011;45408;52.686;7.310;2023-02-19T08:53:38;4.22;;;2.80;;
59585;SDS011;45408;52.686;7.310;2023-02-19T08:56:04;5.07;;;2.92;;
59585;SDS011;45408;52.686;7.310;2023-02-19T08:58:29;4.32;;;2.53;;
59585;SDS011;45408;52.686;7.310;2023-02-19T09:00:56;4.38;;;2.03;;
59585;SDS011;45408;52.686;7.310;2023-02-19T09:03:22;3.88;;;2.15;;
59585;SDS011;45408;52.686;7.310;2023-02-19T09:05:47;2.67;;;1.97;;
59585;SDS011;45408;52.686;7.310;2023-02-19T09:08:12;4.03;;;2.22;;
59585;SDS011;45408;52.686;7.310;2023-02-19T09:10:37;4.40;;;2.50;;
59585;SDS011;45408;52.686;7.310;2023-02-19T09:13:03;3.90;;;2.05;;
59585;SDS011;45408;52.686;7.310;2023-02-19T09:15:28;4.43;;;2.50;;
59585;SDS011;45408;52.686;7.310;2023-02-19T09:17:54;4.88;;;2.45;;
59585;SDS011;45408;52.686;7.310;2023-02-19T09:20:19;4.68;;;2.50;;
59585;SDS011;45408;52.686;7.310;2023-02-19T09:22:44;5.43;;;2.50;;
59585;SDS011;45408;52.686;7.310;2023-02-19T09:25:10;4.40;;;2.80;;
59585;SDS011;45408;52.686;7.310;2023-02-19T09:27:35;5.15;;;3.17;;
59585;SDS011;45408;52.686;7.310;2023-02-19T09:30:00;4.37;;;2.40;;
59585;SDS011;45408;52.686;7.310;2023-02-19T09:32:25;2.83;;;2.07;;
59585;SDS011;45408;52.686;7.310;2023-02-19T09:34:53;4.80;;;2.77;;
59585;SDS011;45408;52.686;7.310;2023-02-19T09:37:19;3.42;;;2.10;;
59585;SDS011;45408;52.686;7.310;2023-02-19T09:39:44;4.63;;;2.60;;
59585;SDS011;45408;52.686;7.310;2023-02-19T09:44:35;3.67;;;2.28;;
59585;SDS011;45408;52.686;7.310;2023-02-19T09:47:02;3.65;;;2.35;;
59585;SDS011;45408;52.686;7.310;2023-02-19T09:51:57;4.80;;;2.45;;
59585;SDS011;45408;52.686;7.310;2023-02-19T09:54:25;4.50;;;1.98;;
59585;SDS011;45408;52.686;7.310;2023-02-19T09:56:52;4.47;;;2.00;;
59585;SDS011;45408;52.686;7.310;2023-02-19T09:59:23;2.42;;;2.00;;
59585;SDS011;45408;52.686;7.310;2023-02-19T10:01:51;3.25;;;1.73;;
59585;SDS011;45408;52.686;7.310;2023-02-19T10:04:19;2.75;;;1.38;;
59585;SDS011;45408;52.686;7.310;2023-02-19T10:06:44;3.83;;;1.93;;
59585;SDS011;45408;52.686;7.310;2023-02-19T10:09:21;3.05;;;1.52;;
59585;SDS011;45408;52.686;7.310;2023-02-19T10:11:47;9.25;;;4.38;;
59585;SDS011;45408;52.686;7.310;2023-02-19T10:14:16;7.47;;;3.60;;
59585;SDS011;45408;52.686;7.310;2023-02-19T10:16:44;23.80;;;9.45;;
59585;SDS011;45408;52.686;7.310;2023-02-19T10:19:10;11.35;;;5.95;;
59585;SDS011;45408;52.686;7.310;2023-02-19T10:21:36;5.35;;;2.35;;
59585;SDS011;45408;52.686;7.310;2023-02-19T10:24:01;3.00;;;1.92;;
59585;SDS011;45408;52.686;7.310;2023-02-19T10:26:28;5.95;;;2.08;;
59585;SDS011;45408;52.686;7.310;2023-02-19T10:28:58;3.25;;;2.00;;
59585;SDS011;45408;52.686;7.310;2023-02-19T10:31:24;2.97;;;1.73;;
59585;SDS011;45408;52.686;7.310;2023-02-19T10:33:50;2.40;;;1.52;;
59585;SDS011;45408;52.686;7.310;2023-02-19T10:36:37;4.13;;;1.52;;
59585;SDS011;45408;52.686;7.310;2023-02-19T10:39:02;5.07;;;1.67;;
59585;SDS011;45408;52.686;7.310;2023-02-19T10:41:29;3.00;;;1.75;;
59585;SDS011;45408;52.686;7.310;2023-02-19T10:46:27;2.83;;;1.70;;
59585;SDS011;45408;52.686;7.310;2023-02-19T10:49:00;3.03;;;1.65;;
59585;SDS011;45408;52.686;7.310;2023-02-19T10:51:31;5.55;;;1.98;;
59585;SDS011;45408;52.686;7.310;2023-02-19T10:54:12;5.70;;;1.95;;
59585;SDS011;45408;52.686;7.310;2023-02-19T10:56:39;3.92;;;1.60;;
59585;SDS011;45408;52.686;7.310;2023-02-19T10:59:25;2.92;;;1.55;;
59585;SDS011;45408;52.686;7.310;2023-02-19T11:04:22;4.20;;;1.67;;
59585;SDS011;45408;52.686;7.310;2023-02-19T11:06:47;3.10;;;1.70;;
59585;SDS011;45408;52.686;7.310;2023-02-19T11:11:50;34.17;;;7.65;;
59585;SDS011;45408;52.686;7.310;2023-02-19T11:14:17;14.18;;;4.68;;
59585;SDS011;45408;52.686;7.310;2023-02-19T11:16:47;9.57;;;3.30;;
59585;SDS011;45408;52.686;7.310;2023-02-19T11:19:55;4.00;;;1.60;;
59585;SDS011;45408;52.686;7.310;2023-02-19T11:22:01;2.60;;;1.58;;
59585;SDS011;45408;52.686;7.310;2023-02-19T11:24:33;2.50;;;1.45;;
59585;SDS011;45408;52.686;7.310;2023-02-19T11:27:02;2.97;;;1.50;;
59585;SDS011;45408;52.686;7.310;2023-02-19T11:29:28;4.00;;;1.23;;
59585;SDS011;45408;52.686;7.310;2023-02-19T11:32:02;4.63;;;1.75;;
59585;SDS011;45408;52.686;7.310;2023-02-19T11:34:40;3.42;;;1.10;;
59585;SDS011;45408;52.686;7.310;2023-02-19T11:37:06;4.22;;;2.58;;
59585;SDS011;45408;52.686;7.310;2023-02-19T11:39:32;5.35;;;2.42;;
59585;SDS011;45408;52.686;7.310;2023-02-19T11:50:39;4.43;;;1.25;;
59585;SDS011;45408;52.686;7.310;2023-02-19T11:52:37;4.07;;;1.50;;
59585;SDS011;45408;52.686;7.310;2023-02-19T11:55:16;2.20;;;1.10;;
59585;SDS011;45408;52.686;7.310;2023-02-19T11:57:44;2.25;;;1.23;;
59585;SDS011;45408;52.686;7.310;2023-02-19T12:00:14;5.18;;;2.25;;
59585;SDS011;45408;52.686;7.310;2023-02-19T12:03:48;1.52;;;0.90;;
59585;SDS011;45408;52.686;7.310;2023-02-19T12:05:46;2.70;;;0.90;;
59585;SDS011;45408;52.686;7.310;2023-02-19T12:08:16;3.47;;;1.33;;
59585;SDS011;45408;52.686;7.310;2023-02-19T12:10:50;2.72;;;1.58;;
59585;SDS011;45408;52.686;7.310;2023-02-19T12:16:02;2.63;;;1.20;;
59585;SDS011;45408;52.686;7.310;2023-02-19T12:18:34;1.73;;;1.23;;
59585;SDS011;45408;52.686;7.310;2023-02-19T12:21:14;2.85;;;1.40;;
59585;SDS011;45408;52.686;7.310;2023-02-19T12:26:15;4.60;;;1.50;;
59585;SDS011;45408;52.686;7.310;2023-02-19T12:33:51;1.73;;;1.07;;
59585;SDS011;45408;52.686;7.310;2023-02-19T12:36:32;2.22;;;1.00;;
59585;SDS011;45408;52.686;7.310;2023-02-19T12:41:28;3.40;;;1.13;;
59585;SDS011;45408;52.686;7.310;2023-02-19T12:46:53;1.30;;;0.90;;
59585;SDS011;45408;52.686;7.310;2023-02-19T12:51:49;2.93;;;1.10;;
59585;SDS011;45408;52.686;7.310;2023-02-19T12:54:19;2.50;;;1.42;;
59585;SDS011;45408;52.686;7.310;2023-02-19T13:02:15;1.63;;;0.98;;
59585;SDS011;45408;52.686;7.310;2023-02-19T13:04:44;2.17;;;1.10;;
59585;SDS011;45408;52.686;7.310;2023-02-19T13:09:57;2.50;;;1.35;;
59585;SDS011;45408;52.686;7.310;2023-02-19T13:12:28;2.97;;;1.33;;
59585;SDS011;45408;52.686;7.310;2023-02-19T13:14:57;5.78;;;1.55;;
59585;SDS011;45408;52.686;7.310;2023-02-19T13:19:55;1.95;;;0.90;;
59585;SDS011;45408;52.686;7.310;2023-02-19T13:22:23;2.35;;;1.05;;
59585;SDS011;45408;52.686;7.310;2023-02-19T13:25:10;1.48;;;0.75;;
59585;SDS011;45408;52.686;7.310;2023-02-19T13:27:40;2.30;;;1.13;;
59585;SDS011;45408;52.686;7.310;2023-02-19T13:32:57;2.10;;;0.90;;
59585;SDS011;45408;52.686;7.310;2023-02-19T13:38:09;2.58;;;0.80;;
59585;SDS011;45408;52.686;7.310;2023-02-19T13:40:38;1.73;;;0.70;;
59585;SDS011;45408;52.686;7.310;2023-02-19T13:43:21;2.40;;;0.90;;
59585;SDS011;45408;52.686;7.310;2023-02-19T13:45:46;1.17;;;0.60;;
59585;SDS011;45408;52.686;7.310;2023-02-19T13:48:24;2.72;;;1.15;;
59585;SDS011;45408;52.686;7.310;2023-02-19T13:51:36;3.05;;;1.10;;
59585;SDS011;45408;52.686;7.310;2023-02-19T14:01:18;3.70;;;0.82;;
59585;SDS011;45408;52.686;7.310;2023-02-19T14:06:14;3.47;;;0.60;;
59585;SDS011;45408;52.686;7.310;2023-02-19T14:08:53;4.07;;;0.90;;
59585;SDS011;45408;52.686;7.310;2023-02-19T14:14:22;2.53;;;0.90;;
59585;SDS011;45408;52.686;7.310;2023-02-19T14:16:54;1.65;;;0.80;;
59585;SDS011;45408;52.686;7.310;2023-02-19T14:22:44;1.33;;;0.73;;
59585;SDS011;45408;52.686;7.310;2023-02-19T14:24:48;3.08;;;0.70;;
59585;SDS011;45408;52.686;7.310;2023-02-19T14:27:14;2.30;;;0.88;;
59585;SDS011;45408;52.686;7.310;2023-02-19T14:29:39;1.83;;;0.82;;
59585;SDS011;45408;52.686;7.310;2023-02-19T14:32:05;2.33;;;0.70;;
59585;SDS011;45408;52.686;7.310;2023-02-19T14:34:30;1.33;;;0.90;;
59585;SDS011;45408;52.686;7.310;2023-02-19T14:36:56;0.95;;;0.70;;
59585;SDS011;45408;52.686;7.310;2023-02-19T14:39:29;1.52;;;1.10;;
59585;SDS011;45408;52.686;7.310;2023-02-19T14:42:02;1.92;;;1.00;;
59585;SDS011;45408;52.686;7.310;2023-02-19T14:44:30;1.92;;;1.50;;
59585;SDS011;45408;52.686;7.310;2023-02-19T14:47:08;4.30;;;1.10;;
59585;SDS011;45408;52.686;7.310;2023-02-19T14:52:03;2.60;;;1.00;;
59585;SDS011;45408;52.686;7.310;2023-02-19T14:54:34;1.77;;;0.90;;
59585;SDS011;45408;52.686;7.310;2023-02-19T14:57:01;1.27;;;0.80;;
59585;SDS011;45408;52.686;7.310;2023-02-19T14:59:28;3.97;;;2.15;;
59585;SDS011;45408;52.686;7.310;2023-02-19T15:02:00;3.13;;;1.60;;
59585;SDS011;45408;52.686;7.310;2023-02-19T15:04:27;3.35;;;1.30;;
59585;SDS011;45408;52.686;7.310;2023-02-19T15:06:53;1.88;;;1.10;;
59585;SDS011;45408;52.686;7.310;2023-02-19T15:09:20;1.85;;;1.13;;
59585;SDS011;45408;52.686;7.310;2023-02-19T15:11:48;4.43;;;1.20;;
59585;SDS011;45408;52.686;7.310;2023-02-19T15:14:20;2.20;;;1.05;;
59585;SDS011;45408;52.686;7.310;2023-02-19T15:16:47;2.40;;;0.88;;
59585;SDS011;45408;52.686;7.310;2023-02-19T15:19:14;1.92;;;1.05;;
59585;SDS011;45408;52.686;7.310;2023-02-19T15:21:43;3.42;;;1.00;;
59585;SDS011;45408;52.686;7.310;2023-02-19T15:24:09;0.95;;;0.77;;
59585;SDS011;45408;52.686;7.310;2023-02-19T15:26:37;5.22;;;1.10;;
59585;SDS011;45408;52.686;7.310;2023-02-19T15:29:03;2.15;;;0.75;;
59585;SDS011;45408;52.686;7.310;2023-02-19T15:31:32;3.47;;;1.23;;
59585;SDS011;45408;52.686;7.310;2023-02-19T15:33:58;3.13;;;1.00;;
59585;SDS011;45408;52.686;7.310;2023-02-19T15:36:27;2.63;;;1.15;;
59585;SDS011;45408;52.686;7.310;2023-02-19T15:38:53;5.20;;;1.40;;
59585;SDS011;45408;52.686;7.310;2023-02-19T15:41:22;1.70;;;1.08;;
59585;SDS011;45408;52.686;7.310;2023-02-19T15:43:50;2.03;;;0.80;;
59585;SDS011;45408;52.686;7.310;2023-02-19T15:46:18;2.05;;;0.70;;
59585;SDS011;45408;52.686;7.310;2023-02-19T15:48:57;2.65;;;1.13;;
59585;SDS011;45408;52.686;7.310;2023-02-19T15:51:25;2.67;;;1.20;;
59585;SDS011;45408;52.686;7.310;2023-02-19T15:53:55;1.30;;;1.10;;
59585;SDS011;45408;52.686;7.310;2023-02-19T15:56:24;1.80;;;0.90;;
59585;SDS011;45408;52.686;7.310;2023-02-19T15:58:55;1.98;;;1.00;;
59585;SDS011;45408;52.686;7.310;2023-02-19T16:01:23;2.65;;;1.08;;
59585;SDS011;45408;52.686;7.310;2023-02-19T16:03:49;2.47;;;1.15;;
59585;SDS011;45408;52.686;7.310;2023-02-19T16:06:15;5.38;;;1.02;;
59585;SDS011;45408;52.686;7.310;2023-02-19T16:09:03;2.58;;;0.90;;
59585;SDS011;45408;52.686;7.310;2023-02-19T16:13:52;2.22;;;1.00;;
59585;SDS011;45408;52.686;7.310;2023-02-19T16:16:37;2.42;;;1.00;;
59585;SDS011;45408;52.686;7.310;2023-02-19T16:19:03;3.38;;;1.10;;
59585;SDS011;45408;52.686;7.310;2023-02-19T16:21:28;1.40;;;1.10;;
59585;SDS011;45408;52.686;7.310;2023-02-19T16:24:05;1.80;;;1.30;;
59585;SDS011;45408;52.686;7.310;2023-02-19T16:26:38;1.73;;;1.30;;
59585;SDS011;45408;52.686;7.310;2023-02-19T16:29:03;4.15;;;1.30;;